Time;durP1;ratioP1;P1;durP2;ratioP2;P2;SDS_P1;SDS_P2;PMS_P1;PMS_P2;Temp;Humidity;BMP_temperature;BMP_pressure;BME280_temperature;BME280_humidity;BME280_pressure;Samples;Min_cycle;Max_cycle;Signal;HPM_P1;HPM_P2
2022/11/13 00:01:18;;;;;;;5.82;3.30;;;;;;;9.02;84.04;98000.28;5096819;28;20441;-60
2022/11/13 00:03:45;;;;;;;4.75;3.22;;;;;;;9.04;83.66;98005.50;5096861;28;20482;-60
2022/11/13 00:06:14;;;;;;;5.53;2.72;;;;;;;9.06;83.82;98007.22;5096911;28;20051;-60
2022/11/13 00:08:42;;;;;;;4.25;3.30;;;;;;;9.04;83.39;97997.66;5096748;28;20119;-60
2022/11/13 00:11:17;;;;;;;3.20;2.90;;;;;;;9.03;83.59;98006.41;5096643;28;20105;-60
2022/11/13 00:13:45;;;;;;;5.60;2.75;;;;;;;8.96;83.39;97998.59;5096553;28;20101;-60
2022/11/13 00:16:14;;;;;;;4.95;3.00;;;;;;;8.92;83.37;98002.13;5096625;28;20048;-60
2022/11/13 00:18:43;;;;;;;4.80;3.17;;;;;;;8.93;83.18;98001.25;5096571;28;20044;-60
2022/11/13 00:21:14;;;;;;;4.43;2.80;;;;;;;8.94;83.13;97999.50;5096558;28;20109;-60
2022/11/13 00:23:42;;;;;;;3.35;3.05;;;;;;;8.94;82.99;98000.34;5096267;28;20048;-60
2022/11/13 00:26:13;;;;;;;4.35;3.05;;;;;;;8.93;82.62;97998.63;5096561;28;20052;-60
2022/11/13 00:28:44;;;;;;;6.13;3.22;;;;;;;8.90;82.72;97998.66;5096431;28;20135;-60
2022/11/13 00:31:13;;;;;;;3.92;3.42;;;;;;;8.81;82.41;97994.38;5096289;28;20052;-60
2022/11/13 00:33:41;;;;;;;3.78;2.85;;;;;;;8.79;82.51;97992.66;5096321;28;20044;-60
2022/11/13 00:36:14;;;;;;;6.95;3.17;;;;;;;8.75;82.49;97988.31;5096259;28;20044;-60
2022/11/13 00:38:42;;;;;;;4.82;2.83;;;;;;;8.74;82.53;97989.22;5096294;28;20477;-60
2022/11/13 00:41:11;;;;;;;3.83;3.13;;;;;;;8.73;82.51;97983.13;5096155;28;20056;-60
2022/11/13 00:43:38;;;;;;;3.10;2.65;;;;;;;8.72;82.50;97994.44;5096117;28;20044;-59
2022/11/13 00:46:07;;;;;;;9.43;3.10;;;;;;;8.73;82.08;97993.53;5096386;28;20477;-59
2022/11/13 00:48:34;;;;;;;4.82;2.85;;;;;;;8.74;82.05;97992.69;5096046;28;20048;-60
2022/11/13 00:51:02;;;;;;;4.53;2.90;;;;;;;8.69;82.15;97992.72;5095942;28;20052;-60
2022/11/13 00:53:30;;;;;;;3.80;2.67;;;;;;;8.67;82.09;97994.47;5095932;28;20101;-60
2022/11/13 00:55:59;;;;;;;6.57;3.10;;;;;;;8.64;81.90;97985.81;5095667;28;20097;-60
2022/11/13 00:58:28;;;;;;;4.53;3.38;;;;;;;8.62;81.99;97990.16;5094981;28;20044;-60
2022/11/13 01:00:56;;;;;;;4.07;2.80;;;;;;;8.58;81.97;97991.94;5095834;28;20455;-60
2022/11/13 01:03:23;;;;;;;4.35;2.58;;;;;;;8.51;82.01;97984.97;5095654;28;20070;-60
2022/11/13 01:05:52;;;;;;;3.08;2.63;;;;;;;8.52;82.08;97992.78;5095622;28;20494;-60
2022/11/13 01:08:20;;;;;;;4.00;3.00;;;;;;;8.44;82.14;97978.94;5095659;28;20097;-60
2022/11/13 01:10:49;;;;;;;6.88;2.95;;;;;;;8.40;82.56;97985.91;5095597;28;20051;-60
2022/11/13 01:13:16;;;;;;;2.90;2.60;;;;;;;8.38;82.34;97978.97;5095565;28;20405;-60
2022/11/13 01:15:45;;;;;;;5.13;3.30;;;;;;;8.34;82.66;97979.00;5095476;28;20048;-60
2022/11/13 01:18:14;;;;;;;3.03;2.70;;;;;;;8.36;82.54;97985.97;5095510;28;20054;-60
2022/11/13 01:20:42;;;;;;;3.42;2.25;;;;;;;8.34;82.44;97980.75;5095296;28;20551;-60
2022/11/13 01:23:09;;;;;;;3.10;2.72;;;;;;;8.31;82.54;97983.38;5095605;28;20055;-60
2022/11/13 01:25:36;;;;;;;4.18;2.80;;;;;;;8.25;82.73;97978.19;5095157;28;20055;-60
2022/11/13 01:28:04;;;;;;;8.40;2.70;;;;;;;8.18;82.92;97980.81;5095458;28;20055;-60
2022/11/13 01:30:31;;;;;;;4.50;2.90;;;;;;;8.14;83.01;97973.91;5095136;28;20091;-60
2022/11/13 01:32:59;;;;;;;3.63;2.42;;;;;;;8.04;83.34;97978.28;5095101;28;20076;-60
2022/11/13 01:35:27;;;;;;;4.03;2.90;;;;;;;7.95;83.50;97978.34;5095044;28;20048;-60
2022/11/13 01:37:54;;;;;;;5.47;2.83;;;;;;;7.89;83.99;97979.22;5095029;28;20043;-60
2022/11/13 01:40:22;;;;;;;4.15;2.85;;;;;;;7.87;83.70;97986.19;5095021;28;20051;-61
2022/11/13 01:42:49;;;;;;;2.83;2.50;;;;;;;7.87;83.71;97985.31;5095076;28;20040;-59
2022/11/13 01:45:53;;;;;;;3.50;2.50;;;;;;;7.86;83.45;97986.19;5094926;28;20079;-60
2022/11/13 01:48:21;;;;;;;4.72;2.80;;;;;;;7.78;83.47;97989.69;5094955;28;20082;-60
2022/11/13 01:50:48;;;;;;;4.93;2.78;;;;;;;7.78;83.31;97984.50;5094786;28;20383;-59
2022/11/13 01:53:16;;;;;;;4.28;2.78;;;;;;;7.75;83.16;97987.09;5094696;28;20452;-60
2022/11/13 01:55:43;;;;;;;4.20;3.00;;;;;;;7.69;83.36;97985.41;5094683;28;20135;-60
2022/11/13 01:58:13;;;;;;;5.10;3.28;;;;;;;7.63;83.43;97990.63;5094697;28;20131;-60
2022/11/13 02:00:40;;;;;;;6.45;3.35;;;;;;;7.60;83.53;97988.03;5094572;28;20044;-60
2022/11/13 02:03:07;;;;;;;3.05;2.75;;;;;;;7.59;83.55;97981.94;5094883;28;20072;-60
2022/11/13 02:05:36;;;;;;;5.00;2.65;;;;;;;7.53;83.58;97983.69;5094415;28;20097;-60
2022/11/13 02:08:03;;;;;;;4.60;3.33;;;;;;;7.48;84.14;97981.09;5094103;28;20095;-59
2022/11/13 02:10:31;;;;;;;5.43;2.75;;;;;;;7.49;84.10;97985.44;5094459;28;20081;-60
2022/11/13 02:12:58;;;;;;;6.03;3.13;;;;;;;7.50;83.97;97981.97;5094413;28;20048;-59
2022/11/13 02:15:28;;;;;;;5.13;2.90;;;;;;;7.44;84.00;97979.38;5094245;28;20044;-59
2022/11/13 02:17:58;;;;;;;4.45;3.25;;;;;;;7.45;84.64;97981.09;5094301;28;20127;-59
2022/11/13 02:20:31;;;;;;;5.70;3.30;;;;;;;7.49;84.40;97979.38;5094249;28;20051;-60
2022/11/13 02:23:09;;;;;;;4.63;3.10;;;;;;;7.52;84.63;97982.81;5094322;28;20051;-59
2022/11/13 02:25:39;;;;;;;7.00;3.22;;;;;;;7.54;84.78;97983.69;5094133;28;20501;-59
2022/11/13 02:28:06;;;;;;;5.38;3.15;;;;;;;7.52;84.93;97976.75;5094114;28;20412;-60
2022/11/13 02:30:35;;;;;;;3.90;3.22;;;;;;;7.54;85.79;97981.09;5093847;28;20105;-59
2022/11/13 02:33:02;;;;;;;4.70;2.97;;;;;;;7.59;85.57;97976.72;5094000;28;20402;-60
2022/11/13 02:35:32;;;;;;;8.00;3.13;;;;;;;7.66;85.82;97987.13;5093886;28;20052;-59
2022/11/13 02:38:02;;;;;;;5.05;3.25;;;;;;;7.70;86.02;97975.81;5093922;28;20139;-60
2022/11/13 02:40:30;;;;;;;3.75;3.00;;;;;;;7.77;86.16;97971.47;5093828;28;20146;-59
2022/11/13 02:42:58;;;;;;;4.82;3.60;;;;;;;7.85;86.25;97974.91;5093716;28;20040;-59
2022/11/13 02:45:26;;;;;;;7.93;3.65;;;;;;;7.93;86.38;97977.47;5093782;28;20569;-60
2022/11/13 02:47:53;;;;;;;5.97;3.65;;;;;;;7.97;86.23;97977.47;5093874;28;20073;-60
2022/11/13 02:50:20;;;;;;;8.00;3.47;;;;;;;8.04;86.37;97980.03;5093498;28;20090;-60
2022/11/13 02:52:47;;;;;;;3.85;3.22;;;;;;;8.11;86.16;97981.75;5093616;28;20489;-60
2022/11/13 02:55:15;;;;;;;4.57;3.72;;;;;;;8.15;86.14;97977.34;5093620;28;20418;-60
2022/11/13 02:57:42;;;;;;;4.70;3.22;;;;;;;8.14;86.09;97981.72;5093633;28;20112;-60
2022/11/13 03:00:12;;;;;;;5.30;3.17;;;;;;;8.17;85.99;97981.72;5093824;28;20040;-60
2022/11/13 03:02:40;;;;;;;7.78;2.90;;;;;;;8.21;86.25;97983.41;5093498;28;20044;-60
2022/11/13 03:05:08;;;;;;;3.45;2.70;;;;;;;8.26;86.16;97978.19;5093550;28;20501;-60
2022/11/13 03:07:35;;;;;;;5.65;2.92;;;;;;;8.29;85.85;97985.13;5093337;28;20078;-60
2022/11/13 03:10:02;;;;;;;5.75;2.67;;;;;;;8.29;85.74;97982.50;5093270;28;20090;-60
2022/11/13 03:12:29;;;;;;;3.90;3.00;;;;;;;8.29;85.98;97979.91;5093428;28;20405;-60
2022/11/13 03:14:57;;;;;;;5.55;3.13;;;;;;;8.29;86.22;97972.97;5093368;28;20060;-60
2022/11/13 03:17:25;;;;;;;3.08;2.40;;;;;;;8.32;86.18;97977.28;5093134;28;20047;-60
2022/11/13 03:19:52;;;;;;;3.85;2.90;;;;;;;8.29;86.32;97970.34;5092433;28;20090;-60
2022/11/13 03:22:20;;;;;;;6.88;2.92;;;;;;;8.32;86.74;97974.69;5093146;28;20066;-60
2022/11/13 03:24:47;;;;;;;5.22;3.20;;;;;;;8.33;87.28;97971.19;5093116;28;20048;-60
2022/11/13 03:27:14;;;;;;;7.47;3.85;;;;;;;8.33;87.78;97969.44;5093181;28;20052;-60
2022/11/13 03:29:41;;;;;;;4.97;3.55;;;;;;;8.31;88.32;97967.72;5093142;28;20117;-60
2022/11/13 03:32:09;;;;;;;4.45;2.95;;;;;;;8.37;88.54;97972.88;5093011;28;20052;-60
2022/11/13 03:34:38;;;;;;;5.00;3.55;;;;;;;8.40;88.55;97969.41;5093308;28;20559;-60
2022/11/13 03:37:05;;;;;;;3.17;2.78;;;;;;;8.41;88.54;97972.00;5093016;28;20055;-60
2022/11/13 03:39:32;;;;;;;5.78;3.30;;;;;;;8.39;88.78;97970.28;5093109;28;20112;-60
2022/11/13 03:42:00;;;;;;;4.40;3.80;;;;;;;8.39;88.91;97967.66;5093111;28;20054;-60
2022/11/13 03:44:27;;;;;;;4.72;3.65;;;;;;;8.42;89.04;97973.75;5093266;28;20051;-60
2022/11/13 03:46:54;;;;;;;5.07;3.53;;;;;;;8.47;89.14;97973.72;5092901;28;20475;-60
2022/11/13 03:49:21;;;;;;;5.53;3.63;;;;;;;8.52;89.11;97971.06;5092998;28;20048;-60
2022/11/13 03:51:50;;;;;;;4.25;3.75;;;;;;;8.59;89.03;97967.56;5092759;28;20544;-60
2022/11/13 03:54:17;;;;;;;4.00;3.60;;;;;;;8.63;88.89;97963.19;5092870;28;20129;-60
2022/11/13 03:56:46;;;;;;;5.75;3.67;;;;;;;8.62;88.67;97959.72;5092862;28;20047;-59
2022/11/13 03:59:13;;;;;;;4.88;3.50;;;;;;;8.67;88.81;97959.69;5092875;28;20078;-60
2022/11/13 04:01:40;;;;;;;13.55;3.22;;;;;;;8.69;88.59;97957.94;5092804;28;20044;-60
2022/11/13 04:04:07;;;;;;;4.35;3.58;;;;;;;8.66;88.36;97957.94;5092766;28;20048;-60
2022/11/13 04:06:34;;;;;;;5.80;4.25;;;;;;;8.65;87.57;97949.28;5092864;28;20044;-60
2022/11/13 04:09:04;;;;;;;5.55;4.10;;;;;;;8.68;87.33;97946.66;5092700;28;20080;-60
2022/11/13 04:11:31;;;;;;;5.45;3.90;;;;;;;8.65;87.39;97948.41;5092699;28;20102;-60
2022/11/13 04:13:58;;;;;;;5.75;3.72;;;;;;;8.64;87.14;97946.69;5092709;28;20044;-60
2022/11/13 04:16:25;;;;;;;3.92;3.25;;;;;;;8.65;87.00;97946.66;5092980;28;20045;-60
2022/11/13 04:18:52;;;;;;;5.38;3.78;;;;;;;8.62;86.32;97948.41;5092603;28;20052;-60
2022/11/13 04:21:20;;;;;;;10.23;4.57;;;;;;;8.54;86.31;97941.53;5092696;28;20071;-60
2022/11/13 04:23:47;;;;;;;4.32;3.60;;;;;;;8.52;86.13;97951.06;5092710;28;20105;-60
2022/11/13 04:26:15;;;;;;;6.07;4.35;;;;;;;8.40;86.32;97948.56;5092620;28;20041;-60
2022/11/13 04:28:42;;;;;;;6.18;4.00;;;;;;;8.36;86.61;97945.09;5092706;28;20446;-60
2022/11/13 04:31:10;;;;;;;6.20;4.35;;;;;;;8.35;86.49;97948.59;5093363;28;20056;-60
2022/11/13 04:33:37;;;;;;;6.10;4.13;;;;;;;8.33;86.17;97945.09;5096381;28;20079;-60
2022/11/13 04:36:04;;;;;;;5.35;4.03;;;;;;;8.29;86.13;97944.28;5096397;28;20080;-60
2022/11/13 04:38:32;;;;;;;7.50;3.90;;;;;;;8.28;85.80;97941.69;5096458;28;20048;-60
2022/11/13 04:43:41;;;;;;;6.15;4.32;;;;;;;8.21;85.50;97952.13;5096271;28;20044;-60
2022/11/13 04:46:08;;;;;;;6.80;3.95;;;;;;;8.20;85.31;97954.75;5096549;28;20127;-60
2022/11/13 04:48:36;;;;;;;7.47;3.70;;;;;;;8.19;84.67;97964.31;5096046;28;20101;-60
2022/11/13 04:51:03;;;;;;;5.35;3.90;;;;;;;8.16;84.73;97964.31;5095865;28;20048;-60
2022/11/13 04:53:30;;;;;;;4.30;3.45;;;;;;;8.12;84.57;97966.97;5095948;28;20044;-60
2022/11/13 04:55:57;;;;;;;5.80;3.95;;;;;;;8.12;84.56;97967.81;5095823;28;20080;-59
2022/11/13 04:58:24;;;;;;;7.78;3.97;;;;;;;8.13;84.62;97971.31;5095866;28;20051;-60
2022/11/13 05:00:53;;;;;;;6.35;3.95;;;;;;;8.08;84.61;97968.72;5095694;28;20056;-59
2022/11/13 05:03:20;;;;;;;7.18;3.75;;;;;;;8.08;84.80;97972.22;5095713;28;20078;-59
2022/11/13 05:05:48;;;;;;;6.38;4.35;;;;;;;8.07;84.74;97975.66;5095908;28;20093;-60
2022/11/13 05:08:15;;;;;;;6.00;4.43;;;;;;;7.95;85.09;97976.59;5095575;28;20040;-60
2022/11/13 05:10:43;;;;;;;6.25;4.45;;;;;;;7.91;85.66;97974.00;5095573;28;20079;-60
2022/11/13 05:13:10;;;;;;;6.50;4.03;;;;;;;7.98;85.79;97970.50;5095615;28;20123;-60
2022/11/13 05:15:37;;;;;;;10.07;4.45;;;;;;;7.95;85.99;97973.97;5095628;28;20083;-60
2022/11/13 05:18:06;;;;;;;9.63;4.57;;;;;;;7.98;86.07;97970.50;5095356;28;20486;-59
2022/11/13 05:20:33;;;;;;;5.38;4.40;;;;;;;7.99;86.42;97971.38;5095371;28;20048;-60
2022/11/13 05:23:00;;;;;;;4.47;4.05;;;;;;;8.01;86.26;97969.63;5095356;28;20445;-60
2022/11/13 05:25:27;;;;;;;4.30;3.65;;;;;;;7.94;86.72;97972.25;5095078;28;20040;-60
2022/11/13 05:27:55;;;;;;;4.57;3.50;;;;;;;7.96;86.63;97978.34;5095277;28;20044;-60
2022/11/13 05:30:22;;;;;;;6.32;4.45;;;;;;;7.99;86.83;97980.06;5095605;28;20055;-60
2022/11/13 05:32:49;;;;;;;5.82;4.60;;;;;;;8.01;86.72;97975.69;5095011;28;20155;-60
2022/11/13 05:35:18;;;;;;;9.45;4.53;;;;;;;8.01;87.00;97988.72;5095073;28;20044;-60
2022/11/13 05:37:45;;;;;;;4.88;4.32;;;;;;;8.02;86.91;97984.38;5095033;28;20123;-60
2022/11/13 05:40:13;;;;;;;5.25;4.45;;;;;;;8.04;87.15;97980.88;5095023;28;20090;-60
2022/11/13 05:42:40;;;;;;;8.40;4.50;;;;;;;8.10;87.48;97987.84;5094357;28;20048;-60
2022/11/13 05:45:08;;;;;;;9.35;4.28;;;;;;;8.14;87.61;97983.47;5094986;28;20044;-59
2022/11/13 05:47:35;;;;;;;7.13;4.35;;;;;;;8.25;87.64;97978.19;5094832;28;20055;-60
2022/11/13 05:50:02;;;;;;;5.30;4.32;;;;;;;8.29;87.43;97986.00;5094813;28;20055;-60
2022/11/13 05:52:31;;;;;;;5.90;4.20;;;;;;;8.32;87.29;97991.19;5094654;28;20131;-60
2022/11/13 05:54:58;;;;;;;5.95;4.25;;;;;;;8.38;87.06;97994.63;5094830;28;20131;-60
2022/11/13 05:57:25;;;;;;;5.65;4.50;;;;;;;8.40;87.03;97992.88;5094662;28;20043;-60
2022/11/13 05:59:53;;;;;;;5.70;4.45;;;;;;;8.42;87.21;97985.91;5094543;28;20052;-60
2022/11/13 06:02:20;;;;;;;6.88;4.32;;;;;;;8.44;87.06;97992.88;5094517;28;20043;-60
2022/11/13 06:04:48;;;;;;;6.13;4.50;;;;;;;8.50;87.24;97993.69;5094599;28;20072;-60
2022/11/13 06:07:16;;;;;;;6.55;4.93;;;;;;;8.54;87.03;98005.84;5094562;28;20052;-60
2022/11/13 06:09:44;;;;;;;6.90;4.30;;;;;;;8.56;87.12;98004.13;5094580;28;20074;-60
2022/11/13 06:12:12;;;;;;;6.22;4.20;;;;;;;8.62;87.33;97997.97;5094617;28;20546;-60
2022/11/13 06:14:39;;;;;;;6.28;3.72;;;;;;;8.66;87.11;98000.56;5094333;28;20054;-60
2022/11/13 06:17:06;;;;;;;5.80;3.72;;;;;;;8.65;87.00;98009.28;5094344;28;20048;-60
2022/11/13 06:19:34;;;;;;;4.55;3.85;;;;;;;8.66;87.07;97999.69;5094368;28;20051;-59
2022/11/13 06:22:01;;;;;;;6.97;4.65;;;;;;;8.68;86.95;98004.03;5094241;28;20536;-60
2022/11/13 06:24:28;;;;;;;4.78;4.28;;;;;;;8.73;86.79;98009.19;5094091;28;20047;-60
2022/11/13 06:26:57;;;;;;;5.93;4.32;;;;;;;8.77;86.92;98010.94;5094097;28;20421;-59
2022/11/13 06:29:25;;;;;;;4.20;3.80;;;;;;;8.83;86.77;98012.63;5094046;28;20044;-60
2022/11/13 06:31:52;;;;;;;8.57;4.35;;;;;;;8.83;87.18;98012.63;5093886;28;20055;-60
2022/11/13 06:34:19;;;;;;;5.10;4.22;;;;;;;8.86;87.06;98012.59;5094054;28;20127;-60
2022/11/13 06:36:47;;;;;;;6.25;4.47;;;;;;;8.91;86.76;98005.59;5094071;28;20456;-60
2022/11/13 06:39:14;;;;;;;5.50;4.60;;;;;;;8.96;86.50;98010.78;5093794;28;20075;-60
2022/11/13 06:41:41;;;;;;;6.47;4.22;;;;;;;9.00;86.54;98009.88;5093841;28;20048;-60
2022/11/13 06:44:10;;;;;;;6.22;3.85;;;;;;;9.00;86.72;98007.25;5093866;28;20429;-60
2022/11/13 06:46:37;;;;;;;10.88;4.30;;;;;;;9.06;86.97;98003.75;5093784;28;20452;-60
2022/11/13 06:49:04;;;;;;;8.85;4.80;;;;;;;9.12;86.53;98006.28;5093692;28;20132;-60
2022/11/13 06:51:32;;;;;;;5.68;4.63;;;;;;;9.17;86.35;97995.81;5093601;28;20040;-60
2022/11/13 06:54:00;;;;;;;9.95;4.85;;;;;;;9.24;86.58;98000.09;5093238;28;20506;-60
2022/11/13 06:56:29;;;;;;;7.57;4.55;;;;;;;9.28;86.78;97999.22;5092981;28;20044;-59
2022/11/13 06:58:57;;;;;;;8.23;5.30;;;;;;;9.35;86.65;97998.25;5093494;28;20094;-60
2022/11/13 07:01:27;;;;;;;5.47;4.15;;;;;;;9.40;86.43;98003.44;5093547;28;20044;-60
2022/11/13 07:03:57;;;;;;;6.30;4.27;;;;;;;9.44;86.83;98002.53;5093825;28;20052;-60
2022/11/13 07:06:24;;;;;;;9.10;5.03;;;;;;;9.47;86.64;98007.72;5093717;28;20050;-60
2022/11/13 07:08:53;;;;;;;7.63;4.47;;;;;;;9.55;85.92;98015.50;5093435;28;20044;-60
2022/11/13 07:11:22;;;;;;;8.98;5.35;;;;;;;9.60;85.36;98011.06;5093386;28;20040;-60
2022/11/13 07:13:50;;;;;;;8.00;5.40;;;;;;;9.68;85.38;98015.34;5093400;28;20048;-60
2022/11/13 07:16:19;;;;;;;9.63;5.65;;;;;;;9.71;85.06;98010.09;5093375;28;20044;-60
2022/11/13 07:18:53;;;;;;;9.52;5.28;;;;;;;9.76;85.12;98005.69;5093171;28;20047;-60
2022/11/13 07:21:25;;;;;;;9.32;5.68;;;;;;;9.83;84.92;98003.84;5093363;28;20611;-60
2022/11/13 07:23:52;;;;;;;7.03;5.28;;;;;;;9.92;84.12;98005.50;5093026;28;20052;-60
2022/11/13 07:26:20;;;;;;;7.20;5.07;;;;;;;9.96;83.66;98005.44;5093332;28;20052;-60
2022/11/13 07:28:49;;;;;;;7.22;5.45;;;;;;;10.00;83.52;98006.28;5093255;28;20044;-60
2022/11/13 07:31:17;;;;;;;7.60;4.75;;;;;;;10.05;83.48;98001.00;5093078;28;20048;-60
2022/11/13 07:33:47;;;;;;;7.15;4.60;;;;;;;10.06;83.47;97998.34;5093217;28;20058;-60
2022/11/13 07:36:18;;;;;;;10.45;5.45;;;;;;;10.12;83.06;97997.41;5093163;28;20134;-60
2022/11/13 07:38:45;;;;;;;5.47;4.55;;;;;;;10.16;82.97;97995.59;5093106;28;20056;-60
2022/11/13 07:41:13;;;;;;;7.80;4.07;;;;;;;10.23;82.77;97997.25;5093363;28;20075;-60
2022/11/13 07:43:40;;;;;;;6.75;4.07;;;;;;;10.27;83.09;97985.88;5093050;28;20176;-60
2022/11/13 07:46:08;;;;;;;8.25;5.03;;;;;;;10.35;83.03;97984.00;5093085;28;20482;-60
2022/11/13 07:48:36;;;;;;;8.27;5.35;;;;;;;10.42;83.00;97984.78;5093033;28;20044;-60
2022/11/13 07:51:04;;;;;;;13.13;6.30;;;;;;;10.52;82.94;97982.94;5093106;28;20074;-60
2022/11/13 07:53:37;;;;;;;14.43;6.85;;;;;;;10.65;81.95;97982.78;5092892;28;20097;-61
2022/11/13 07:56:07;;;;;;;15.95;9.18;;;;;;;10.67;81.73;97979.22;5092801;28;20088;-60
2022/11/13 07:58:34;;;;;;;15.18;7.30;;;;;;;10.77;82.55;97982.56;5092956;28;20047;-60
2022/11/13 08:01:04;;;;;;;12.95;6.78;;;;;;;10.80;81.55;97985.13;5092955;28;20044;-60
2022/11/13 08:03:31;;;;;;;15.45;7.30;;;;;;;10.89;81.16;97989.34;5093002;28;20463;-60
2022/11/13 08:06:03;;;;;;;11.50;7.25;;;;;;;10.97;80.56;97989.22;5093585;28;20052;-60
2022/11/13 08:08:32;;;;;;;10.98;6.50;;;;;;;11.05;79.89;97981.25;5096956;28;20055;-60
2022/11/13 08:11:04;;;;;;;8.90;6.25;;;;;;;11.10;79.44;97976.78;5096851;28;20051;-59
2022/11/13 08:13:31;;;;;;;8.90;5.60;;;;;;;11.17;78.70;97981.03;5096810;28;20056;-60
2022/11/13 08:16:00;;;;;;;8.65;4.88;;;;;;;11.22;78.12;97976.59;5096839;28;20429;-60
2022/11/13 08:18:28;;;;;;;7.53;4.57;;;;;;;11.20;78.01;97982.75;5096807;28;20044;-60
2022/11/13 08:20:55;;;;;;;7.88;5.28;;;;;;;11.18;77.82;97988.00;5096700;28;20047;-60
2022/11/13 08:23:23;;;;;;;6.13;4.85;;;;;;;11.19;77.77;97986.25;5096357;28;20092;-60
2022/11/13 08:25:50;;;;;;;5.80;4.30;;;;;;;11.22;77.74;97987.06;5096508;28;20051;-60
2022/11/13 08:28:19;;;;;;;6.75;4.32;;;;;;;11.28;77.40;97987.81;5096674;28;20052;-60
2022/11/13 08:30:47;;;;;;;14.73;6.43;;;;;;;11.33;77.00;97988.63;5096490;28;20071;-60
2022/11/13 08:33:14;;;;;;;12.80;6.25;;;;;;;11.39;76.79;97993.75;5096411;28;20428;-60
2022/11/13 08:35:42;;;;;;;10.43;6.18;;;;;;;11.48;76.36;97987.47;5096370;28;20127;-60
2022/11/13 08:38:10;;;;;;;9.75;5.78;;;;;;;11.58;76.29;97989.03;5096230;28;20079;-60
2022/11/13 08:40:37;;;;;;;14.30;5.57;;;;;;;11.70;76.02;97976.56;5096325;28;20058;-60
2022/11/13 08:43:05;;;;;;;8.23;5.72;;;;;;;11.81;75.69;97979.88;5096264;28;20048;-60
2022/11/13 08:45:34;;;;;;;7.90;4.97;;;;;;;11.92;75.01;97978.78;5096110;28;20044;-61
2022/11/13 08:48:01;;;;;;;15.80;5.78;;;;;;;12.06;74.34;97978.47;5096236;28;20127;-59
2022/11/13 08:50:28;;;;;;;9.10;5.35;;;;;;;12.14;74.04;97981.84;5096065;28;20048;-60
2022/11/13 08:52:57;;;;;;;7.72;5.63;;;;;;;12.17;74.53;97978.28;5095940;28;20048;-60
2022/11/13 08:55:25;;;;;;;13.10;5.57;;;;;;;12.23;74.38;97968.53;5095945;28;20054;-60
2022/11/13 08:57:53;;;;;;;11.10;6.00;;;;;;;12.29;73.01;97977.16;5095961;28;20062;-60
2022/11/13 09:00:21;;;;;;;8.73;5.78;;;;;;;12.22;74.22;97971.19;5096210;28;20052;-60
2022/11/13 09:02:54;;;;;;;12.27;4.68;;;;;;;12.27;73.98;97971.94;5095705;28;20063;-60
2022/11/13 09:05:21;;;;;;;6.20;4.03;;;;;;;12.32;72.52;97970.09;5095844;28;20097;-60
2022/11/13 09:07:49;;;;;;;8.27;5.35;;;;;;;12.28;71.82;97963.16;5095751;28;20059;-60
2022/11/13 09:10:18;;;;;;;9.18;4.55;;;;;;;12.26;72.40;97965.81;5095664;28;20387;-60
2022/11/13 09:12:45;;;;;;;4.72;3.72;;;;;;;12.17;71.96;97959.94;5095456;28;20048;-60
2022/11/13 09:15:12;;;;;;;6.43;3.75;;;;;;;12.18;72.07;97959.03;5095644;28;20498;-60
2022/11/13 09:17:41;;;;;;;4.68;3.45;;;;;;;12.26;71.99;97950.09;5094505;28;20117;-60
2022/11/13 09:20:11;;;;;;;4.95;3.85;;;;;;;12.26;71.66;97952.72;5095417;28;20047;-60
2022/11/13 09:22:38;;;;;;;3.83;3.47;;;;;;;12.29;69.89;97954.41;5095687;28;20090;-59
2022/11/13 09:25:06;;;;;;;4.07;3.60;;;;;;;12.40;70.35;97950.69;5095153;28;20544;-60
2022/11/13 09:27:34;;;;;;;4.07;3.17;;;;;;;12.53;69.99;97946.00;5095399;28;20128;-60
2022/11/13 09:30:02;;;;;;;5.68;3.85;;;;;;;12.67;69.84;97943.91;5095337;28;20079;-60
2022/11/13 09:32:32;;;;;;;7.03;3.45;;;;;;;12.74;69.08;97953.34;5095187;28;20465;-60
2022/11/13 09:35:00;;;;;;;3.83;3.13;;;;;;;12.86;67.68;97946.09;5095223;28;20044;-60
2022/11/13 09:37:31;;;;;;;4.32;3.45;;;;;;;12.94;67.70;97941.50;5095046;28;20109;-60
2022/11/13 09:40:04;;;;;;;4.13;2.85;;;;;;;12.99;66.76;97946.66;5095054;28;20048;-60
2022/11/13 09:42:39;;;;;;;3.40;2.75;;;;;;;13.02;66.25;97939.56;5095031;28;20048;-60
2022/11/13 09:45:14;;;;;;;4.13;2.85;;;;;;;13.06;65.52;97932.44;5094978;28;20098;-60
2022/11/13 09:47:46;;;;;;;3.50;2.85;;;;;;;12.99;65.30;97931.75;5095220;28;20127;-60
2022/11/13 09:50:20;;;;;;;3.28;2.63;;;;;;;13.04;64.49;97930.78;5094966;28;20101;-60
2022/11/13 09:52:54;;;;;;;5.10;3.00;;;;;;;13.13;63.97;97927.91;5094805;28;20390;-60
2022/11/13 09:55:29;;;;;;;6.18;2.80;;;;;;;13.13;62.90;97922.66;5094811;28;20135;-60
2022/11/13 09:58:06;;;;;;;3.53;2.67;;;;;;;13.15;62.87;97923.47;5094829;28;20504;-60
2022/11/13 10:00:35;;;;;;;4.20;2.63;;;;;;;13.23;62.46;97916.25;5094695;28;20101;-60
2022/11/13 10:03:22;;;;;;;3.22;2.50;;;;;;;13.31;62.82;97913.44;5094758;28;20105;-60
2022/11/13 10:05:59;;;;;;;3.40;2.42;;;;;;;13.34;60.74;97912.47;5094665;28;20055;-60
2022/11/13 10:08:31;;;;;;;4.22;2.70;;;;;;;13.27;61.62;97910.00;5094470;28;20044;-60
2022/11/13 10:11:13;;;;;;;4.65;3.15;;;;;;;13.27;61.77;97910.00;5094494;28;20091;-60
2022/11/13 10:13:47;;;;;;;3.20;2.45;;;;;;;13.34;60.50;97902.81;5094463;28;20052;-60
2022/11/13 10:16:22;;;;;;;6.22;2.28;;;;;;;13.37;59.11;97904.50;5094543;28;20055;-60
2022/11/13 10:18:59;;;;;;;4.90;2.20;;;;;;;13.34;59.21;97905.44;5094449;28;20044;-60
2022/11/13 10:21:38;;;;;;;3.42;2.30;;;;;;;13.38;58.90;97903.59;5094509;28;20040;-60
2022/11/13 10:24:16;;;;;;;4.78;2.80;;;;;;;13.40;59.56;97899.16;5094148;28;20059;-60
2022/11/13 10:26:45;;;;;;;3.55;2.92;;;;;;;13.46;61.33;97908.63;5094400;28;20075;-60
2022/11/13 10:29:17;;;;;;;3.88;3.03;;;;;;;13.45;62.63;97901.66;5093984;28;20567;-60
2022/11/13 10:31:47;;;;;;;4.68;3.08;;;;;;;13.49;62.42;97892.78;5094214;28;20052;-60
2022/11/13 10:34:15;;;;;;;4.32;2.88;;;;;;;13.58;62.34;97889.06;5093998;28;20063;-60
2022/11/13 10:36:55;;;;;;;5.38;3.65;;;;;;;13.49;60.75;97885.78;5094040;28;20101;-60
2022/11/13 10:39:24;;;;;;;4.28;3.53;;;;;;;13.47;61.37;97887.56;5093968;28;20095;-60
2022/11/13 10:41:53;;;;;;;3.88;3.25;;;;;;;13.55;62.02;97889.16;5093916;28;20044;-60
2022/11/13 10:44:28;;;;;;;4.53;3.35;;;;;;;13.73;61.90;97879.88;5093885;28;20055;-60
2022/11/13 10:47:06;;;;;;;3.25;2.95;;;;;;;13.82;59.94;97871.69;5093878;28;20055;-60
2022/11/13 10:49:33;;;;;;;5.95;2.92;;;;;;;13.95;60.39;97871.31;5093872;28;20084;-60
2022/11/13 10:52:02;;;;;;;6.13;3.30;;;;;;;14.08;57.83;97864.78;5093719;28;20497;-60
2022/11/13 10:54:33;;;;;;;3.97;3.05;;;;;;;14.22;58.36;97866.13;5093516;28;20087;-60
2022/11/13 10:57:02;;;;;;;6.13;3.83;;;;;;;14.31;57.17;97860.56;5093619;28;20079;-60
2022/11/13 10:59:39;;;;;;;5.20;2.75;;;;;;;14.44;57.25;97858.38;5093741;28;20059;-60
2022/11/13 11:02:17;;;;;;;4.28;2.60;;;;;;;14.49;56.26;97851.22;5093556;28;20127;-60
2022/11/13 11:04:47;;;;;;;4.38;3.53;;;;;;;14.53;56.28;97847.56;5093571;28;20055;-60
2022/11/13 11:07:18;;;;;;;5.00;3.25;;;;;;;14.55;56.21;97836.97;5093760;28;20044;-60
2022/11/13 11:09:51;;;;;;;3.42;2.95;;;;;;;14.54;57.50;97840.50;5093577;28;20079;-59
2022/11/13 11:12:20;;;;;;;5.03;2.90;;;;;;;14.59;57.32;97832.44;5093309;28;20079;-60
2022/11/13 11:15:07;;;;;;;4.95;2.78;;;;;;;14.66;57.23;97840.09;5093273;28;20059;-60
2022/11/13 11:17:42;;;;;;;5.18;2.90;;;;;;;14.72;56.00;97827.66;5093395;28;20056;-60
2022/11/13 11:20:22;;;;;;;6.57;2.83;;;;;;;14.78;55.67;97830.09;5093489;28;20131;-60
2022/11/13 11:22:56;;;;;;;4.43;3.03;;;;;;;14.74;57.00;97826.66;5093301;28;20137;-60
2022/11/13 11:25:37;;;;;;;5.85;2.67;;;;;;;14.68;57.47;97821.59;5093197;28;20051;-60
2022/11/13 11:28:13;;;;;;;5.32;3.08;;;;;;;14.81;54.65;97818.59;5093313;28;20055;-60
2022/11/13 11:30:48;;;;;;;3.40;2.65;;;;;;;14.74;56.51;97815.25;5093379;28;20083;-60
2022/11/13 11:33:26;;;;;;;3.17;2.80;;;;;;;14.77;56.39;97815.16;5093079;28;20048;-60
2022/11/13 11:36:00;;;;;;;5.40;3.17;;;;;;;14.76;55.11;97805.56;5093193;28;20047;-60
2022/11/13 11:38:34;;;;;;;4.30;2.88;;;;;;;14.75;55.82;97807.31;5093197;28;20093;-60
2022/11/13 11:41:10;;;;;;;4.35;2.97;;;;;;;14.59;56.51;97806.13;5095179;28;20044;-60
2022/11/13 11:43:44;;;;;;;6.57;3.15;;;;;;;14.59;56.08;97808.75;5099941;28;20048;-60
2022/11/13 11:46:14;;;;;;;4.22;2.90;;;;;;;14.62;55.67;97799.00;5099888;28;20063;-60
2022/11/13 11:48:42;;;;;;;3.50;3.00;;;;;;;14.59;56.33;97800.84;5099957;28;20124;-60
2022/11/13 11:51:21;;;;;;;5.40;3.05;;;;;;;14.42;55.08;97801.44;5099782;28;20315;-60